Terminal Aerodrome Forecast
Issued by NWS

Home | Current Version | Previous Version | Graphics & Text | Print | Product List | Glossary On
Versions: 1 2 3 4 5 6 7 8 9 10 11 12 13 14 15 16 17 18 19 20 21 22 23
000
FTUS43 KGRB 122341
TAFRHI
TAF
KRHI 122341Z 1300/1324 24003KT P6SM -SHSN BKN070
     FM130500 18004KT P6SM -SN OVC050
     FM130600 16004KT 3SM -SN OVC035
     FM130800 15005KT 2SM -SN OVC025
     FM130900 12006KT 1 1/2SM -SN OVC012
     FM131500 05006KT 1SM -SN OVC010=

USA.gov is the U.S. government's official web portal to all federal, state and local government web resources and services.